sensor_id;sensor_type;location;lat;lon;timestamp;P1;durP1;ratioP1;P2;durP2;ratioP2
4742;SDS011;24293;48.154;7.748;2023-06-10T00:01:39;9.63;;;4.87;;
4742;SDS011;24293;48.154;7.748;2023-06-10T00:04:05;7.40;;;5.03;;
4742;SDS011;24293;48.154;7.748;2023-06-10T00:06:32;8.23;;;5.23;;
4742;SDS011;24293;48.154;7.748;2023-06-10T00:09:02;6.50;;;4.90;;
4742;SDS011;24293;48.154;7.748;2023-06-10T00:11:30;6.80;;;5.20;;
4742;SDS011;24293;48.154;7.748;2023-06-10T00:13:57;10.07;;;5.50;;
4742;SDS011;24293;48.154;7.748;2023-06-10T00:16:23;8.47;;;4.97;;
4742;SDS011;24293;48.154;7.748;2023-06-10T00:18:50;10.37;;;4.97;;
4742;SDS011;24293;48.154;7.748;2023-06-10T00:21:17;9.43;;;4.77;;
4742;SDS011;24293;48.154;7.748;2023-06-10T00:23:44;7.90;;;5.07;;
4742;SDS011;24293;48.154;7.748;2023-06-10T00:26:12;8.33;;;5.73;;
4742;SDS011;24293;48.154;7.748;2023-06-10T00:28:38;6.17;;;4.47;;
4742;SDS011;24293;48.154;7.748;2023-06-10T00:31:05;7.50;;;4.97;;
4742;SDS011;24293;48.154;7.748;2023-06-10T00:33:31;7.63;;;4.97;;
4742;SDS011;24293;48.154;7.748;2023-06-10T00:35:57;9.70;;;5.03;;
4742;SDS011;24293;48.154;7.748;2023-06-10T00:38:24;8.70;;;4.60;;
4742;SDS011;24293;48.154;7.748;2023-06-10T00:40:51;7.30;;;5.13;;
4742;SDS011;24293;48.154;7.748;2023-06-10T00:43:18;11.43;;;5.30;;
4742;SDS011;24293;48.154;7.748;2023-06-10T00:45:45;7.43;;;5.37;;
4742;SDS011;24293;48.154;7.748;2023-06-10T00:48:11;11.70;;;6.07;;
4742;SDS011;24293;48.154;7.748;2023-06-10T00:50:38;10.23;;;5.03;;
4742;SDS011;24293;48.154;7.748;2023-06-10T00:53:05;6.67;;;4.73;;
4742;SDS011;24293;48.154;7.748;2023-06-10T00:55:31;6.23;;;4.27;;
4742;SDS011;24293;48.154;7.748;2023-06-10T00:57:58;6.37;;;4.50;;
4742;SDS011;24293;48.154;7.748;2023-06-10T01:00:27;5.77;;;4.57;;
4742;SDS011;24293;48.154;7.748;2023-06-10T01:02:54;7.23;;;4.50;;
4742;SDS011;24293;48.154;7.748;2023-06-10T01:05:20;6.30;;;4.27;;
4742;SDS011;24293;48.154;7.748;2023-06-10T01:07:49;8.10;;;5.30;;
4742;SDS011;24293;48.154;7.748;2023-06-10T01:10:19;7.47;;;4.77;;
4742;SDS011;24293;48.154;7.748;2023-06-10T01:12:49;7.17;;;5.03;;
4742;SDS011;24293;48.154;7.748;2023-06-10T01:15:18;7.20;;;5.17;;
4742;SDS011;24293;48.154;7.748;2023-06-10T01:17:56;6.80;;;4.63;;
4742;SDS011;24293;48.154;7.748;2023-06-10T01:20:23;6.43;;;5.03;;
4742;SDS011;24293;48.154;7.748;2023-06-10T01:22:53;8.00;;;4.87;;
4742;SDS011;24293;48.154;7.748;2023-06-10T01:25:19;7.80;;;5.53;;
4742;SDS011;24293;48.154;7.748;2023-06-10T01:27:52;7.90;;;5.20;;
4742;SDS011;24293;48.154;7.748;2023-06-10T01:30:19;6.93;;;4.90;;
4742;SDS011;24293;48.154;7.748;2023-06-10T01:32:50;6.07;;;4.67;;
4742;SDS011;24293;48.154;7.748;2023-06-10T01:35:17;9.00;;;4.93;;
4742;SDS011;24293;48.154;7.748;2023-06-10T01:37:45;7.80;;;5.47;;
4742;SDS011;24293;48.154;7.748;2023-06-10T01:40:14;5.70;;;4.60;;
4742;SDS011;24293;48.154;7.748;2023-06-10T01:42:41;6.50;;;4.77;;
4742;SDS011;24293;48.154;7.748;2023-06-10T01:45:08;7.43;;;5.20;;
4742;SDS011;24293;48.154;7.748;2023-06-10T01:47:34;7.87;;;5.40;;
4742;SDS011;24293;48.154;7.748;2023-06-10T01:50:01;6.60;;;4.40;;
4742;SDS011;24293;48.154;7.748;2023-06-10T01:52:28;7.73;;;4.83;;
4742;SDS011;24293;48.154;7.748;2023-06-10T01:54:57;8.00;;;4.80;;
4742;SDS011;24293;48.154;7.748;2023-06-10T01:57:25;10.60;;;4.97;;
4742;SDS011;24293;48.154;7.748;2023-06-10T01:59:51;6.80;;;4.50;;
4742;SDS011;24293;48.154;7.748;2023-06-10T02:02:17;8.40;;;5.33;;
4742;SDS011;24293;48.154;7.748;2023-06-10T02:04:44;7.40;;;5.20;;
4742;SDS011;24293;48.154;7.748;2023-06-10T02:07:10;7.20;;;4.40;;
4742;SDS011;24293;48.154;7.748;2023-06-10T02:09:37;9.37;;;6.87;;
4742;SDS011;24293;48.154;7.748;2023-06-10T02:12:04;7.17;;;4.93;;
4742;SDS011;24293;48.154;7.748;2023-06-10T02:14:32;8.03;;;5.37;;
4742;SDS011;24293;48.154;7.748;2023-06-10T02:16:59;9.83;;;5.70;;
4742;SDS011;24293;48.154;7.748;2023-06-10T02:19:25;11.40;;;6.93;;
4742;SDS011;24293;48.154;7.748;2023-06-10T02:21:53;9.37;;;5.50;;
4742;SDS011;24293;48.154;7.748;2023-06-10T02:24:19;8.00;;;5.63;;
4742;SDS011;24293;48.154;7.748;2023-06-10T02:26:46;6.53;;;4.80;;
4742;SDS011;24293;48.154;7.748;2023-06-10T02:29:13;7.83;;;5.20;;
4742;SDS011;24293;48.154;7.748;2023-06-10T02:31:40;5.77;;;4.20;;
4742;SDS011;24293;48.154;7.748;2023-06-10T02:34:07;7.67;;;5.03;;
4742;SDS011;24293;48.154;7.748;2023-06-10T02:36:33;7.07;;;4.90;;
4742;SDS011;24293;48.154;7.748;2023-06-10T02:39:00;6.80;;;4.93;;
4742;SDS011;24293;48.154;7.748;2023-06-10T02:41:27;7.30;;;4.93;;
4742;SDS011;24293;48.154;7.748;2023-06-10T02:43:54;7.40;;;5.20;;
4742;SDS011;24293;48.154;7.748;2023-06-10T02:46:20;6.93;;;4.97;;
4742;SDS011;24293;48.154;7.748;2023-06-10T02:48:48;9.60;;;5.60;;
4742;SDS011;24293;48.154;7.748;2023-06-10T02:51:17;9.10;;;5.60;;
4742;SDS011;24293;48.154;7.748;2023-06-10T02:53:43;8.30;;;5.60;;
4742;SDS011;24293;48.154;7.748;2023-06-10T02:56:10;14.70;;;5.93;;
4742;SDS011;24293;48.154;7.748;2023-06-10T02:58:37;7.53;;;4.97;;
4742;SDS011;24293;48.154;7.748;2023-06-10T03:01:04;9.70;;;5.63;;
4742;SDS011;24293;48.154;7.748;2023-06-10T03:03:30;5.90;;;4.37;;
4742;SDS011;24293;48.154;7.748;2023-06-10T03:06:01;8.60;;;6.03;;
4742;SDS011;24293;48.154;7.748;2023-06-10T03:08:27;10.10;;;5.63;;
4742;SDS011;24293;48.154;7.748;2023-06-10T03:10:54;6.40;;;4.80;;
4742;SDS011;24293;48.154;7.748;2023-06-10T03:13:20;11.27;;;5.60;;
4742;SDS011;24293;48.154;7.748;2023-06-10T03:15:47;12.50;;;5.50;;
4742;SDS011;24293;48.154;7.748;2023-06-10T03:18:13;9.30;;;6.07;;
4742;SDS011;24293;48.154;7.748;2023-06-10T03:20:40;7.10;;;5.17;;
4742;SDS011;24293;48.154;7.748;2023-06-10T03:23:08;8.43;;;5.50;;
4742;SDS011;24293;48.154;7.748;2023-06-10T03:25:35;9.57;;;5.37;;
4742;SDS011;24293;48.154;7.748;2023-06-10T03:28:02;9.47;;;6.00;;
4742;SDS011;24293;48.154;7.748;2023-06-10T03:30:28;10.60;;;5.80;;
4742;SDS011;24293;48.154;7.748;2023-06-10T03:32:55;12.30;;;5.70;;
4742;SDS011;24293;48.154;7.748;2023-06-10T03:35:21;10.20;;;5.40;;
4742;SDS011;24293;48.154;7.748;2023-06-10T03:37:48;8.03;;;5.20;;
4742;SDS011;24293;48.154;7.748;2023-06-10T03:40:16;8.80;;;5.60;;
4742;SDS011;24293;48.154;7.748;2023-06-10T03:42:42;12.87;;;5.47;;
4742;SDS011;24293;48.154;7.748;2023-06-10T03:45:09;8.40;;;5.50;;
4742;SDS011;24293;48.154;7.748;2023-06-10T03:47:36;11.80;;;6.00;;
4742;SDS011;24293;48.154;7.748;2023-06-10T03:50:03;13.07;;;5.60;;
4742;SDS011;24293;48.154;7.748;2023-06-10T03:52:29;5.80;;;4.90;;
4742;SDS011;24293;48.154;7.748;2023-06-10T03:54:56;7.97;;;5.87;;
4742;SDS011;24293;48.154;7.748;2023-06-10T03:57:24;9.33;;;6.03;;
4742;SDS011;24293;48.154;7.748;2023-06-10T03:59:50;10.37;;;6.43;;
4742;SDS011;24293;48.154;7.748;2023-06-10T04:02:17;9.10;;;6.13;;
4742;SDS011;24293;48.154;7.748;2023-06-10T04:04:44;9.00;;;6.07;;
4742;SDS011;24293;48.154;7.748;2023-06-10T04:07:10;7.77;;;5.63;;
4742;SDS011;24293;48.154;7.748;2023-06-10T04:09:37;7.97;;;5.87;;
4742;SDS011;24293;48.154;7.748;2023-06-10T04:12:04;9.63;;;6.60;;
4742;SDS011;24293;48.154;7.748;2023-06-10T04:14:35;8.07;;;6.07;;
4742;SDS011;24293;48.154;7.748;2023-06-10T04:17:02;10.57;;;6.03;;
4742;SDS011;24293;48.154;7.748;2023-06-10T04:19:31;9.23;;;6.63;;
4742;SDS011;24293;48.154;7.748;2023-06-10T04:21:58;9.97;;;6.50;;
4742;SDS011;24293;48.154;7.748;2023-06-10T04:24:25;8.73;;;6.27;;
4742;SDS011;24293;48.154;7.748;2023-06-10T04:26:51;11.30;;;6.00;;
4742;SDS011;24293;48.154;7.748;2023-06-10T04:29:17;9.87;;;6.70;;
4742;SDS011;24293;48.154;7.748;2023-06-10T04:31:45;8.47;;;6.53;;
4742;SDS011;24293;48.154;7.748;2023-06-10T04:34:12;8.10;;;6.13;;
4742;SDS011;24293;48.154;7.748;2023-06-10T04:36:39;9.23;;;6.40;;
4742;SDS011;24293;48.154;7.748;2023-06-10T04:39:06;10.33;;;6.23;;
4742;SDS011;24293;48.154;7.748;2023-06-10T04:41:32;9.90;;;6.27;;
4742;SDS011;24293;48.154;7.748;2023-06-10T04:43:59;8.40;;;5.67;;
4742;SDS011;24293;48.154;7.748;2023-06-10T04:46:25;10.57;;;6.60;;
4742;SDS011;24293;48.154;7.748;2023-06-10T04:48:53;9.33;;;6.47;;
4742;SDS011;24293;48.154;7.748;2023-06-10T04:51:20;9.43;;;6.70;;
4742;SDS011;24293;48.154;7.748;2023-06-10T04:53:46;7.30;;;4.90;;
4742;SDS011;24293;48.154;7.748;2023-06-10T04:56:13;8.40;;;6.40;;
4742;SDS011;24293;48.154;7.748;2023-06-10T04:58:40;10.50;;;6.07;;
4742;SDS011;24293;48.154;7.748;2023-06-10T05:01:06;9.73;;;5.70;;
4742;SDS011;24293;48.154;7.748;2023-06-10T05:03:33;11.30;;;5.77;;
4742;SDS011;24293;48.154;7.748;2023-06-10T05:06:01;6.53;;;5.33;;
4742;SDS011;24293;48.154;7.748;2023-06-10T05:08:27;8.60;;;6.30;;
4742;SDS011;24293;48.154;7.748;2023-06-10T05:10:54;11.43;;;5.37;;
4742;SDS011;24293;48.154;7.748;2023-06-10T05:13:20;8.03;;;6.30;;
4742;SDS011;24293;48.154;7.748;2023-06-10T05:15:47;10.60;;;5.80;;
4742;SDS011;24293;48.154;7.748;2023-06-10T05:18:13;9.63;;;5.50;;
4742;SDS011;24293;48.154;7.748;2023-06-10T05:20:39;8.90;;;5.93;;
4742;SDS011;24293;48.154;7.748;2023-06-10T05:23:07;8.00;;;5.57;;
4742;SDS011;24293;48.154;7.748;2023-06-10T05:25:34;9.07;;;5.70;;
4742;SDS011;24293;48.154;7.748;2023-06-10T05:28:01;7.10;;;5.40;;
4742;SDS011;24293;48.154;7.748;2023-06-10T05:30:27;7.37;;;6.00;;
4742;SDS011;24293;48.154;7.748;2023-06-10T05:32:54;6.77;;;5.10;;
4742;SDS011;24293;48.154;7.748;2023-06-10T05:35:21;6.83;;;5.23;;
4742;SDS011;24293;48.154;7.748;2023-06-10T05:37:47;6.83;;;5.80;;
4742;SDS011;24293;48.154;7.748;2023-06-10T05:40:15;9.13;;;6.30;;
4742;SDS011;24293;48.154;7.748;2023-06-10T05:42:42;10.80;;;6.17;;
4742;SDS011;24293;48.154;7.748;2023-06-10T05:45:09;8.87;;;5.90;;
4742;SDS011;24293;48.154;7.748;2023-06-10T05:47:35;8.27;;;5.53;;
4742;SDS011;24293;48.154;7.748;2023-06-10T05:50:02;9.60;;;5.73;;
4742;SDS011;24293;48.154;7.748;2023-06-10T05:52:32;7.37;;;5.67;;
4742;SDS011;24293;48.154;7.748;2023-06-10T05:54:58;7.70;;;5.57;;
4742;SDS011;24293;48.154;7.748;2023-06-10T05:57:26;10.37;;;6.27;;
4742;SDS011;24293;48.154;7.748;2023-06-10T05:59:53;10.83;;;5.83;;
4742;SDS011;24293;48.154;7.748;2023-06-10T06:02:19;8.90;;;5.93;;
4742;SDS011;24293;48.154;7.748;2023-06-10T06:04:45;7.77;;;5.97;;
4742;SDS011;24293;48.154;7.748;2023-06-10T06:07:12;9.73;;;6.50;;
4742;SDS011;24293;48.154;7.748;2023-06-10T06:09:38;9.50;;;6.40;;
4742;SDS011;24293;48.154;7.748;2023-06-10T06:12:05;10.00;;;6.60;;
4742;SDS011;24293;48.154;7.748;2023-06-10T06:14:36;8.50;;;6.03;;
4742;SDS011;24293;48.154;7.748;2023-06-10T06:17:03;8.13;;;6.20;;
4742;SDS011;24293;48.154;7.748;2023-06-10T06:19:30;7.97;;;5.87;;
4742;SDS011;24293;48.154;7.748;2023-06-10T06:21:56;7.53;;;5.93;;
4742;SDS011;24293;48.154;7.748;2023-06-10T06:24:23;10.30;;;6.07;;
4742;SDS011;24293;48.154;7.748;2023-06-10T06:26:49;10.23;;;6.50;;
4742;SDS011;24293;48.154;7.748;2023-06-10T06:29:15;8.03;;;6.13;;
4742;SDS011;24293;48.154;7.748;2023-06-10T06:31:43;9.10;;;6.10;;
4742;SDS011;24293;48.154;7.748;2023-06-10T06:34:10;8.07;;;5.87;;
4742;SDS011;24293;48.154;7.748;2023-06-10T06:36:36;14.30;;;6.30;;
4742;SDS011;24293;48.154;7.748;2023-06-10T06:39:03;7.97;;;6.13;;
4742;SDS011;24293;48.154;7.748;2023-06-10T06:41:29;19.47;;;6.03;;
4742;SDS011;24293;48.154;7.748;2023-06-10T06:43:56;9.50;;;6.00;;
4742;SDS011;24293;48.154;7.748;2023-06-10T06:46:22;10.20;;;6.10;;
4742;SDS011;24293;48.154;7.748;2023-06-10T06:48:50;7.93;;;6.07;;
4742;SDS011;24293;48.154;7.748;2023-06-10T06:51:17;12.10;;;7.23;;
4742;SDS011;24293;48.154;7.748;2023-06-10T06:53:43;7.77;;;6.07;;
4742;SDS011;24293;48.154;7.748;2023-06-10T06:56:10;8.50;;;6.50;;
4742;SDS011;24293;48.154;7.748;2023-06-10T06:58:37;9.17;;;5.83;;
4742;SDS011;24293;48.154;7.748;2023-06-10T07:01:03;8.97;;;6.40;;
4742;SDS011;24293;48.154;7.748;2023-06-10T07:03:30;11.07;;;7.07;;
4742;SDS011;24293;48.154;7.748;2023-06-10T07:05:58;8.40;;;5.83;;
4742;SDS011;24293;48.154;7.748;2023-06-10T07:08:25;10.00;;;6.57;;
4742;SDS011;24293;48.154;7.748;2023-06-10T07:10:51;9.10;;;6.50;;
4742;SDS011;24293;48.154;7.748;2023-06-10T07:13:18;10.00;;;6.33;;
4742;SDS011;24293;48.154;7.748;2023-06-10T07:15:45;11.23;;;5.73;;
4742;SDS011;24293;48.154;7.748;2023-06-10T07:18:11;6.83;;;5.43;;
4742;SDS011;24293;48.154;7.748;2023-06-10T07:20:38;7.73;;;5.93;;
4742;SDS011;24293;48.154;7.748;2023-06-10T07:23:06;8.43;;;6.37;;
4742;SDS011;24293;48.154;7.748;2023-06-10T07:25:32;8.83;;;7.17;;
4742;SDS011;24293;48.154;7.748;2023-06-10T07:27:58;10.70;;;6.47;;
4742;SDS011;24293;48.154;7.748;2023-06-10T07:30:25;9.10;;;6.73;;
4742;SDS011;24293;48.154;7.748;2023-06-10T07:32:51;10.90;;;6.10;;
4742;SDS011;24293;48.154;7.748;2023-06-10T07:35:18;8.47;;;6.30;;
4742;SDS011;24293;48.154;7.748;2023-06-10T07:37:44;8.47;;;6.17;;
4742;SDS011;24293;48.154;7.748;2023-06-10T07:40:13;9.77;;;6.23;;
4742;SDS011;24293;48.154;7.748;2023-06-10T07:42:39;8.90;;;5.80;;
4742;SDS011;24293;48.154;7.748;2023-06-10T07:45:07;9.60;;;6.23;;
4742;SDS011;24293;48.154;7.748;2023-06-10T07:47:33;8.90;;;5.90;;
4742;SDS011;24293;48.154;7.748;2023-06-10T07:50:00;8.30;;;6.43;;
4742;SDS011;24293;48.154;7.748;2023-06-10T07:52:26;10.77;;;6.80;;
4742;SDS011;24293;48.154;7.748;2023-06-10T07:54:53;10.67;;;5.57;;
4742;SDS011;24293;48.154;7.748;2023-06-10T07:57:21;9.13;;;6.40;;
4742;SDS011;24293;48.154;7.748;2023-06-10T07:59:48;7.73;;;5.90;;
4742;SDS011;24293;48.154;7.748;2023-06-10T08:02:17;6.87;;;5.30;;
4742;SDS011;24293;48.154;7.748;2023-06-10T08:04:44;9.07;;;6.17;;
4742;SDS011;24293;48.154;7.748;2023-06-10T08:07:10;9.40;;;6.77;;
4742;SDS011;24293;48.154;7.748;2023-06-10T08:09:37;8.13;;;6.47;;
4742;SDS011;24293;48.154;7.748;2023-06-10T08:12:03;8.50;;;6.50;;
4742;SDS011;24293;48.154;7.748;2023-06-10T08:14:35;7.97;;;6.20;;
4742;SDS011;24293;48.154;7.748;2023-06-10T08:17:02;11.50;;;6.27;;
4742;SDS011;24293;48.154;7.748;2023-06-10T08:19:30;6.67;;;5.47;;
4742;SDS011;24293;48.154;7.748;2023-06-10T08:21:56;7.30;;;5.53;;
4742;SDS011;24293;48.154;7.748;2023-06-10T08:24:23;8.00;;;5.57;;
4742;SDS011;24293;48.154;7.748;2023-06-10T08:26:49;11.70;;;7.03;;
4742;SDS011;24293;48.154;7.748;2023-06-10T08:29:16;9.60;;;6.03;;
4742;SDS011;24293;48.154;7.748;2023-06-10T08:31:44;16.63;;;6.60;;
4742;SDS011;24293;48.154;7.748;2023-06-10T08:34:10;10.97;;;5.47;;
4742;SDS011;24293;48.154;7.748;2023-06-10T08:36:37;9.20;;;5.77;;
4742;SDS011;24293;48.154;7.748;2023-06-10T08:39:03;7.20;;;5.90;;
4742;SDS011;24293;48.154;7.748;2023-06-10T08:41:30;11.30;;;6.30;;
4742;SDS011;24293;48.154;7.748;2023-06-10T08:43:59;9.30;;;6.00;;
4742;SDS011;24293;48.154;7.748;2023-06-10T08:46:29;9.87;;;6.00;;
4742;SDS011;24293;48.154;7.748;2023-06-10T08:48:59;13.73;;;6.37;;
4742;SDS011;24293;48.154;7.748;2023-06-10T08:51:29;12.03;;;6.80;;
4742;SDS011;24293;48.154;7.748;2023-06-10T08:53:57;13.67;;;6.83;;
4742;SDS011;24293;48.154;7.748;2023-06-10T08:56:27;12.57;;;6.40;;
4742;SDS011;24293;48.154;7.748;2023-06-10T08:58:54;8.63;;;6.63;;
4742;SDS011;24293;48.154;7.748;2023-06-10T09:01:22;9.87;;;6.57;;
4742;SDS011;24293;48.154;7.748;2023-06-10T09:03:49;13.30;;;7.40;;
4742;SDS011;24293;48.154;7.748;2023-06-10T09:06:17;10.50;;;6.60;;
4742;SDS011;24293;48.154;7.748;2023-06-10T09:08:44;9.83;;;6.47;;
4742;SDS011;24293;48.154;7.748;2023-06-10T09:11:11;15.40;;;6.93;;
4742;SDS011;24293;48.154;7.748;2023-06-10T09:13:37;8.07;;;5.80;;
4742;SDS011;24293;48.154;7.748;2023-06-10T09:16:04;12.80;;;5.30;;
4742;SDS011;24293;48.154;7.748;2023-06-10T09:18:30;12.70;;;7.70;;
4742;SDS011;24293;48.154;7.748;2023-06-10T09:20:57;7.93;;;6.40;;
4742;SDS011;24293;48.154;7.748;2023-06-10T09:23:25;9.53;;;7.60;;
4742;SDS011;24293;48.154;7.748;2023-06-10T09:25:55;12.17;;;7.30;;
4742;SDS011;24293;48.154;7.748;2023-06-10T09:28:22;13.43;;;7.90;;
4742;SDS011;24293;48.154;7.748;2023-06-10T09:30:48;18.93;;;7.63;;
4742;SDS011;24293;48.154;7.748;2023-06-10T09:33:15;13.90;;;7.70;;
4742;SDS011;24293;48.154;7.748;2023-06-10T09:35:45;13.00;;;7.73;;
4742;SDS011;24293;48.154;7.748;2023-06-10T09:38:12;7.80;;;6.70;;
4742;SDS011;24293;48.154;7.748;2023-06-10T09:40:49;10.17;;;7.50;;
4742;SDS011;24293;48.154;7.748;2023-06-10T09:43:16;9.53;;;7.80;;
4742;SDS011;24293;48.154;7.748;2023-06-10T09:45:42;11.53;;;8.00;;
4742;SDS011;24293;48.154;7.748;2023-06-10T09:48:09;8.57;;;7.10;;
4742;SDS011;24293;48.154;7.748;2023-06-10T09:50:41;10.73;;;7.70;;
4742;SDS011;24293;48.154;7.748;2023-06-10T09:53:08;12.80;;;8.10;;
4742;SDS011;24293;48.154;7.748;2023-06-10T09:55:35;11.13;;;8.17;;
4742;SDS011;24293;48.154;7.748;2023-06-10T09:58:05;11.20;;;7.80;;
4742;SDS011;24293;48.154;7.748;2023-06-10T10:00:31;9.90;;;7.53;;
4742;SDS011;24293;48.154;7.748;2023-06-10T10:02:58;11.13;;;8.23;;
4742;SDS011;24293;48.154;7.748;2023-06-10T10:05:24;11.00;;;8.20;;
4742;SDS011;24293;48.154;7.748;2023-06-10T10:07:51;13.90;;;8.00;;
4742;SDS011;24293;48.154;7.748;2023-06-10T10:10:18;10.60;;;7.73;;
4742;SDS011;24293;48.154;7.748;2023-06-10T10:12:46;9.77;;;7.43;;
4742;SDS011;24293;48.154;7.748;2023-06-10T10:15:15;8.23;;;7.40;;
4742;SDS011;24293;48.154;7.748;2023-06-10T10:17:43;9.70;;;7.63;;
4742;SDS011;24293;48.154;7.748;2023-06-10T10:20:12;11.13;;;7.97;;
4742;SDS011;24293;48.154;7.748;2023-06-10T10:22:39;9.07;;;7.87;;
4742;SDS011;24293;48.154;7.748;2023-06-10T10:25:08;9.73;;;8.10;;
4742;SDS011;24293;48.154;7.748;2023-06-10T10:27:38;11.00;;;8.60;;
4742;SDS011;24293;48.154;7.748;2023-06-10T10:30:07;11.47;;;8.70;;
4742;SDS011;24293;48.154;7.748;2023-06-10T10:32:38;8.60;;;7.70;;
4742;SDS011;24293;48.154;7.748;2023-06-10T10:35:07;9.83;;;7.20;;
4742;SDS011;24293;48.154;7.748;2023-06-10T10:37:34;9.10;;;7.93;;
4742;SDS011;24293;48.154;7.748;2023-06-10T10:40:01;10.90;;;8.63;;
4742;SDS011;24293;48.154;7.748;2023-06-10T10:42:28;9.57;;;7.07;;
4742;SDS011;24293;48.154;7.748;2023-06-10T10:44:55;9.10;;;7.37;;
4742;SDS011;24293;48.154;7.748;2023-06-10T10:47:22;7.97;;;7.17;;
4742;SDS011;24293;48.154;7.748;2023-06-10T10:49:55;11.47;;;8.10;;
4742;SDS011;24293;48.154;7.748;2023-06-10T10:52:24;8.40;;;7.57;;
4742;SDS011;24293;48.154;7.748;2023-06-10T10:54:52;11.40;;;7.20;;
4742;SDS011;24293;48.154;7.748;2023-06-10T10:57:19;10.23;;;8.00;;
4742;SDS011;24293;48.154;7.748;2023-06-10T10:59:57;9.67;;;8.10;;
4742;SDS011;24293;48.154;7.748;2023-06-10T11:02:33;11.30;;;8.10;;
4742;SDS011;24293;48.154;7.748;2023-06-10T11:05:02;9.00;;;7.37;;
4742;SDS011;24293;48.154;7.748;2023-06-10T11:07:29;8.20;;;7.37;;
4742;SDS011;24293;48.154;7.748;2023-06-10T11:09:57;9.30;;;7.60;;
4742;SDS011;24293;48.154;7.748;2023-06-10T11:12:23;8.63;;;7.30;;
4742;SDS011;24293;48.154;7.748;2023-06-10T11:14:53;7.80;;;7.00;;
4742;SDS011;24293;48.154;7.748;2023-06-10T11:17:20;12.10;;;8.30;;
4742;SDS011;24293;48.154;7.748;2023-06-10T11:19:46;13.70;;;7.40;;
4742;SDS011;24293;48.154;7.748;2023-06-10T11:22:17;8.70;;;6.63;;
4742;SDS011;24293;48.154;7.748;2023-06-10T11:24:47;8.13;;;6.73;;
4742;SDS011;24293;48.154;7.748;2023-06-10T11:27:17;10.40;;;8.13;;
4742;SDS011;24293;48.154;7.748;2023-06-10T11:29:57;11.00;;;7.70;;
4742;SDS011;24293;48.154;7.748;2023-06-10T11:32:24;9.30;;;7.80;;
4742;SDS011;24293;48.154;7.748;2023-06-10T11:34:52;8.57;;;6.70;;
4742;SDS011;24293;48.154;7.748;2023-06-10T11:37:20;17.63;;;8.00;;
4742;SDS011;24293;48.154;7.748;2023-06-10T11:39:46;9.00;;;7.10;;
4742;SDS011;24293;48.154;7.748;2023-06-10T11:42:15;10.60;;;8.13;;
4742;SDS011;24293;48.154;7.748;2023-06-10T11:44:47;12.63;;;7.33;;
4742;SDS011;24293;48.154;7.748;2023-06-10T11:47:13;10.10;;;7.70;;
4742;SDS011;24293;48.154;7.748;2023-06-10T11:49:40;12.40;;;6.80;;
4742;SDS011;24293;48.154;7.748;2023-06-10T11:52:06;10.50;;;7.10;;
4742;SDS011;24293;48.154;7.748;2023-06-10T11:54:34;12.10;;;6.60;;
4742;SDS011;24293;48.154;7.748;2023-06-10T11:57:01;10.20;;;7.23;;
4742;SDS011;24293;48.154;7.748;2023-06-10T11:59:28;10.07;;;7.67;;
4742;SDS011;24293;48.154;7.748;2023-06-10T12:01:55;9.20;;;6.70;;
4742;SDS011;24293;48.154;7.748;2023-06-10T12:04:21;11.40;;;7.03;;
4742;SDS011;24293;48.154;7.748;2023-06-10T12:06:48;9.57;;;7.80;;
4742;SDS011;24293;48.154;7.748;2023-06-10T12:09:18;7.70;;;6.40;;
4742;SDS011;24293;48.154;7.748;2023-06-10T12:11:48;10.53;;;7.27;;
4742;SDS011;24293;48.154;7.748;2023-06-10T12:14:14;9.70;;;6.93;;
4742;SDS011;24293;48.154;7.748;2023-06-10T12:16:47;9.30;;;7.43;;
4742;SDS011;24293;48.154;7.748;2023-06-10T12:19:14;7.50;;;6.50;;
4742;SDS011;24293;48.154;7.748;2023-06-10T12:21:40;9.00;;;6.70;;
4742;SDS011;24293;48.154;7.748;2023-06-10T12:24:07;10.13;;;7.00;;
4742;SDS011;24293;48.154;7.748;2023-06-10T12:26:35;7.40;;;6.60;;
4742;SDS011;24293;48.154;7.748;2023-06-10T12:29:03;8.80;;;6.63;;
4742;SDS011;24293;48.154;7.748;2023-06-10T12:31:51;7.37;;;6.00;;
4742;SDS011;24293;48.154;7.748;2023-06-10T12:34:18;7.87;;;7.07;;
4742;SDS011;24293;48.154;7.748;2023-06-10T12:36:47;7.13;;;5.73;;
4742;SDS011;24293;48.154;7.748;2023-06-10T12:39:14;7.07;;;6.37;;
4742;SDS011;24293;48.154;7.748;2023-06-10T12:41:40;8.77;;;6.63;;
4742;SDS011;24293;48.154;7.748;2023-06-10T12:44:08;6.67;;;5.80;;
4742;SDS011;24293;48.154;7.748;2023-06-10T12:46:38;7.80;;;6.40;;
4742;SDS011;24293;48.154;7.748;2023-06-10T12:49:04;8.20;;;6.27;;
4742;SDS011;24293;48.154;7.748;2023-06-10T12:51:31;10.33;;;6.27;;
4742;SDS011;24293;48.154;7.748;2023-06-10T12:53:57;14.30;;;6.50;;
4742;SDS011;24293;48.154;7.748;2023-06-10T12:56:24;9.33;;;6.00;;
4742;SDS011;24293;48.154;7.748;2023-06-10T12:58:50;9.73;;;6.63;;
4742;SDS011;24293;48.154;7.748;2023-06-10T13:01:18;8.57;;;5.30;;
4742;SDS011;24293;48.154;7.748;2023-06-10T13:03:45;10.70;;;6.23;;
4742;SDS011;24293;48.154;7.748;2023-06-10T13:06:11;8.03;;;6.50;;
4742;SDS011;24293;48.154;7.748;2023-06-10T13:08:38;9.50;;;5.97;;
4742;SDS011;24293;48.154;7.748;2023-06-10T13:11:04;8.53;;;5.43;;
4742;SDS011;24293;48.154;7.748;2023-06-10T13:13:31;7.07;;;5.80;;
4742;SDS011;24293;48.154;7.748;2023-06-10T13:15:58;7.50;;;6.07;;
4742;SDS011;24293;48.154;7.748;2023-06-10T13:18:27;10.33;;;5.80;;
4742;SDS011;24293;48.154;7.748;2023-06-10T13:20:54;6.20;;;5.30;;
4742;SDS011;24293;48.154;7.748;2023-06-10T13:23:21;7.73;;;5.90;;
4742;SDS011;24293;48.154;7.748;2023-06-10T13:25:47;6.13;;;5.30;;
4742;SDS011;24293;48.154;7.748;2023-06-10T13:28:14;6.60;;;5.90;;
4742;SDS011;24293;48.154;7.748;2023-06-10T13:30:41;8.30;;;6.47;;
4742;SDS011;24293;48.154;7.748;2023-06-10T13:33:07;7.60;;;6.00;;
4742;SDS011;24293;48.154;7.748;2023-06-10T13:35:35;9.43;;;5.97;;
4742;SDS011;24293;48.154;7.748;2023-06-10T13:38:01;7.93;;;5.80;;
4742;SDS011;24293;48.154;7.748;2023-06-10T13:40:28;7.27;;;5.73;;
4742;SDS011;24293;48.154;7.748;2023-06-10T13:42:55;12.07;;;6.40;;
4742;SDS011;24293;48.154;7.748;2023-06-10T13:45:21;16.43;;;6.00;;
4742;SDS011;24293;48.154;7.748;2023-06-10T13:47:47;8.20;;;7.20;;
4742;SDS011;24293;48.154;7.748;2023-06-10T13:50:14;9.20;;;6.97;;
4742;SDS011;24293;48.154;7.748;2023-06-10T13:52:42;8.87;;;5.90;;
4742;SDS011;24293;48.154;7.748;2023-06-10T13:55:08;6.60;;;5.53;;
4742;SDS011;24293;48.154;7.748;2023-06-10T13:57:35;8.03;;;5.97;;
4742;SDS011;24293;48.154;7.748;2023-06-10T14:00:01;8.77;;;5.27;;
4742;SDS011;24293;48.154;7.748;2023-06-10T14:02:28;9.47;;;5.97;;
4742;SDS011;24293;48.154;7.748;2023-06-10T14:04:54;10.13;;;5.90;;
4742;SDS011;24293;48.154;7.748;2023-06-10T14:07:21;8.77;;;4.93;;
4742;SDS011;24293;48.154;7.748;2023-06-10T14:09:48;7.27;;;5.90;;
4742;SDS011;24293;48.154;7.748;2023-06-10T14:12:16;8.60;;;5.20;;
4742;SDS011;24293;48.154;7.748;2023-06-10T14:14:42;7.33;;;5.33;;
4742;SDS011;24293;48.154;7.748;2023-06-10T14:17:08;8.83;;;6.47;;
4742;SDS011;24293;48.154;7.748;2023-06-10T14:19:35;9.17;;;6.10;;
4742;SDS011;24293;48.154;7.748;2023-06-10T14:22:01;7.47;;;6.13;;
4742;SDS011;24293;48.154;7.748;2023-06-10T14:24:28;9.87;;;6.73;;
4742;SDS011;24293;48.154;7.748;2023-06-10T14:26:56;7.17;;;5.87;;
4742;SDS011;24293;48.154;7.748;2023-06-10T14:29:23;7.10;;;5.83;;
4742;SDS011;24293;48.154;7.748;2023-06-10T14:31:52;6.03;;;4.93;;
4742;SDS011;24293;48.154;7.748;2023-06-10T14:34:18;8.00;;;5.60;;
4742;SDS011;24293;48.154;7.748;2023-06-10T14:36:45;9.10;;;5.90;;
4742;SDS011;24293;48.154;7.748;2023-06-10T14:39:11;8.93;;;5.00;;
4742;SDS011;24293;48.154;7.748;2023-06-10T14:41:38;7.70;;;5.80;;
4742;SDS011;24293;48.154;7.748;2023-06-10T14:44:06;7.83;;;4.47;;
4742;SDS011;24293;48.154;7.748;2023-06-10T14:46:32;11.43;;;5.40;;
4742;SDS011;24293;48.154;7.748;2023-06-10T14:48:58;6.57;;;5.17;;
4742;SDS011;24293;48.154;7.748;2023-06-10T14:51:27;5.27;;;4.57;;
4742;SDS011;24293;48.154;7.748;2023-06-10T14:53:53;6.50;;;5.53;;
4742;SDS011;24293;48.154;7.748;2023-06-10T14:56:20;5.90;;;4.80;;
4742;SDS011;24293;48.154;7.748;2023-06-10T14:58:46;9.33;;;5.00;;